createdAt,value
2019-04-23T01:00:57.569Z,11.1
2019-04-23T01:15:59.401Z,11
2019-04-23T01:30:53.896Z,10.9
2019-04-23T01:45:40.708Z,10.9
2019-04-23T02:00:57.503Z,10.8
2019-04-23T02:15:56.822Z,10.7
2019-04-23T02:31:11.144Z,10.7
2019-04-23T02:47:52.326Z,10.4
2019-04-23T03:01:06.095Z,10.4
2019-04-23T03:17:57.262Z,10.2
2019-04-23T04:01:28.910Z,10.1
2019-04-23T04:15:55.057Z,10.2
2019-04-23T04:32:56.293Z,10.2
2019-04-23T04:46:38.456Z,10.3
2019-04-23T05:02:52.364Z,10.4
2019-04-23T05:32:32.605Z,10.7
2019-04-23T05:46:14.055Z,10.9
2019-04-23T06:17:29.405Z,11.5
2019-04-23T06:31:14.890Z,11.8
2019-04-23T06:47:42.656Z,12.3
2019-04-23T07:02:31.864Z,13
2019-04-23T07:16:02.805Z,13.3
2019-04-23T07:45:42.475Z,14.7
2019-04-23T08:02:33.346Z,14.9
2019-04-23T08:15:53.679Z,15.1
2019-04-23T08:30:58.817Z,15.4
2019-04-23T08:45:57.682Z,15.7
2019-04-23T09:02:39.030Z,16.2
2019-04-23T09:15:44.323Z,17
2019-04-23T09:30:38.546Z,17.8
2019-04-23T09:46:04.283Z,18.2
2019-04-23T10:00:58.726Z,18.9
2019-04-23T10:17:16.026Z,19.7
2019-04-23T10:30:06.566Z,20.1
2019-04-23T10:45:34.349Z,19.8
2019-04-23T11:30:40.476Z,19.9
2019-04-23T11:46:32.053Z,19.9
2019-04-23T12:01:36.992Z,19.8
2019-04-23T12:15:45.977Z,19.7
2019-04-23T12:31:06.745Z,19.6
2019-04-23T12:45:35.311Z,19.8
2019-04-23T13:00:50.831Z,20.2
2019-04-23T13:17:49.871Z,20.4
2019-04-23T13:32:45.890Z,20.2
2019-04-23T13:47:52.693Z,20.3
2019-04-23T14:01:17.347Z,20.1
2019-04-23T14:16:20.296Z,20
2019-04-23T14:46:04.578Z,19.8
2019-04-23T15:00:52.377Z,19.7
2019-04-23T15:15:42.288Z,19.5
2019-04-23T15:30:55.177Z,19.4
2019-04-23T15:46:19.795Z,19.4
2019-04-23T16:01:14.066Z,19.3
2019-04-23T16:17:39.546Z,19.1
2019-04-23T16:32:51.165Z,19
2019-04-23T16:46:06.994Z,19
2019-04-23T17:01:11.639Z,19
2019-04-23T17:15:52.636Z,18.8
2019-04-23T17:46:04.856Z,18
2019-04-23T18:01:16.818Z,17.5
2019-04-23T18:32:32.547Z,16.1
2019-04-23T18:47:45.443Z,15.7
2019-04-23T19:15:52.289Z,15.4
2019-04-23T19:31:12.988Z,15.3
2019-04-23T19:46:18.624Z,15.2
2019-04-23T20:01:19.459Z,15.3
2019-04-23T20:16:17.709Z,15.5
2019-04-23T20:45:46.100Z,15.6
2019-04-23T21:01:12.984Z,15.6
2019-04-23T22:00:51.743Z,15.3
2019-04-23T22:16:22.370Z,15.2
2019-04-23T22:31:18.416Z,15
2019-04-23T22:46:13.593Z,14.6
2019-04-23T23:00:53.964Z,14.5
2019-04-23T23:15:48.529Z,14.2
2019-04-23T23:31:15.727Z,13.8
2019-04-23T23:45:55.109Z,13.7
